createdAt,value
2022-10-02T00:01:33.090Z,101065.00
2022-10-02T00:04:02.414Z,101068.91
2022-10-02T00:06:43.168Z,101073.13
2022-10-02T00:09:20.123Z,101069.50
2022-10-02T00:11:51.364Z,101072.25
2022-10-02T00:14:23.540Z,101075.88
2022-10-02T00:16:54.855Z,101076.16
2022-10-02T00:19:22.706Z,101080.66
2022-10-02T00:22:02.662Z,101079.34
2022-10-02T00:24:39.693Z,101075.56
2022-10-02T00:27:18.389Z,101077.44
2022-10-02T00:29:50.659Z,101073.84
2022-10-02T00:32:30.040Z,101078.31
2022-10-02T00:35:24.098Z,101077.59
2022-10-02T00:37:59.214Z,101083.66
2022-10-02T00:41:08.338Z,101086.72
2022-10-02T00:43:44.278Z,101092.91
2022-10-02T00:46:29.230Z,101092.66
2022-10-02T00:49:10.482Z,101086.16
2022-10-02T00:51:51.520Z,101094.25
2022-10-02T00:54:47.230Z,101087.75
2022-10-02T00:57:28.905Z,101096.84
2022-10-02T01:00:05.749Z,101093.81
2022-10-02T01:02:52.349Z,101087.28
2022-10-02T01:05:21.312Z,101093.94
2022-10-02T01:07:53.870Z,101091.78
2022-10-02T01:10:25.740Z,101102.78
2022-10-02T01:12:56.968Z,101094.38
2022-10-02T01:15:31.554Z,101104.19
2022-10-02T01:18:02.050Z,101099.72
2022-10-02T01:20:37.443Z,101102.03
2022-10-02T01:23:28.954Z,101093.94
2022-10-02T01:25:59.161Z,101101.16
2022-10-02T01:28:27.673Z,101097.41
2022-10-02T01:31:00.741Z,101104.50
2022-10-02T01:33:28.698Z,101110.00
2022-10-02T01:35:56.837Z,101099.84
2022-10-02T01:38:25.724Z,101100.56
2022-10-02T01:40:53.797Z,101107.94
2022-10-02T01:43:26.779Z,101105.63
2022-10-02T01:46:16.449Z,101112.88
2022-10-02T01:48:48.328Z,101118.38
2022-10-02T01:51:50.330Z,101114.91
2022-10-02T01:54:25.701Z,101110.81
2022-10-02T01:57:04.035Z,101116.19
2022-10-02T01:59:47.067Z,101115.03
2022-10-02T02:02:19.037Z,101112.34
2022-10-02T02:04:54.982Z,101107.91
2022-10-02T02:07:38.893Z,101111.94
2022-10-02T02:10:42.911Z,101118.50
2022-10-02T02:13:15.609Z,101116.63
2022-10-02T02:15:48.997Z,101114.66
2022-10-02T02:18:22.258Z,101115.09
2022-10-02T02:21:03.218Z,101105.75
2022-10-02T02:23:35.202Z,101106.16
2022-10-02T02:26:06.718Z,101114.56
2022-10-02T02:28:37.438Z,101104.13
2022-10-02T02:31:09.875Z,101108.63
2022-10-02T02:33:42.157Z,101109.63
2022-10-02T02:36:15.651Z,101107.75
2022-10-02T02:38:47.586Z,101098.31
2022-10-02T02:41:18.037Z,101110.19
2022-10-02T02:43:49.897Z,101099.91
2022-10-02T02:46:24.306Z,101098.88
2022-10-02T02:48:56.209Z,101108.00
2022-10-02T02:51:31.894Z,101107.13
2022-10-02T02:54:04.912Z,101106.84
2022-10-02T02:56:34.458Z,101108.72
2022-10-02T02:59:06.768Z,101116.84
2022-10-02T03:01:36.053Z,101121.47
2022-10-02T03:04:04.044Z,101113.22
2022-10-02T03:06:35.579Z,101114.63
2022-10-02T03:09:06.448Z,101115.66
2022-10-02T03:11:49.138Z,101119.84
2022-10-02T03:14:43.385Z,101104.34
2022-10-02T03:17:23.875Z,101109.72
2022-10-02T03:19:58.162Z,101108.84
2022-10-02T03:22:35.534Z,101106.63
2022-10-02T03:25:09.632Z,101102.00
2022-10-02T03:27:43.636Z,101100.25
2022-10-02T03:30:14.036Z,101108.38
2022-10-02T03:32:46.648Z,101117.34
2022-10-02T03:35:16.149Z,101127.63
2022-10-02T03:37:48.091Z,101120.09
2022-10-02T03:40:16.081Z,101125.22
2022-10-02T03:42:43.864Z,101132.28
2022-10-02T03:45:23.066Z,101126.06
2022-10-02T03:48:01.427Z,101126.06
2022-10-02T03:50:32.828Z,101118.09
2022-10-02T03:53:08.071Z,101113.75
2022-10-02T03:55:39.781Z,101121.16
2022-10-02T03:58:14.854Z,101113.03
2022-10-02T04:00:51.046Z,101112.16
2022-10-02T04:03:27.147Z,101125.09
2022-10-02T04:06:01.198Z,101118.72
2022-10-02T04:08:33.446Z,101117.84
2022-10-02T04:11:07.930Z,101108.88
2022-10-02T04:13:40.889Z,101118.00
2022-10-02T04:16:14.590Z,101118.09
2022-10-02T04:18:52.917Z,101114.66
2022-10-02T04:21:30.623Z,101119.00
2022-10-02T04:24:06.909Z,101116.25
2022-10-02T04:26:38.572Z,101116.25
2022-10-02T04:29:16.427Z,101120.91
2022-10-02T04:31:45.590Z,101111.78
2022-10-02T04:34:15.118Z,101121.63
2022-10-02T04:36:59.630Z,101128.88
2022-10-02T04:39:55.219Z,101138.28
2022-10-02T04:42:35.936Z,101138.13
2022-10-02T04:45:17.741Z,101133.50
2022-10-02T04:48:15.714Z,101129.88
2022-10-02T04:50:52.762Z,101129.00
2022-10-02T04:53:38.573Z,101135.25
2022-10-02T04:56:37.095Z,101139.28
2022-10-02T04:59:15.041Z,101143.63
2022-10-02T05:01:59.574Z,101133.50
2022-10-02T05:04:47.722Z,101136.41
2022-10-02T05:07:36.358Z,101137.41
2022-10-02T05:10:19.628Z,101137.25
2022-10-02T05:13:00.254Z,101146.38
2022-10-02T05:15:41.126Z,101145.53
2022-10-02T05:18:24.057Z,101160.16
2022-10-02T05:20:57.871Z,101157.59
2022-10-02T05:23:41.369Z,101161.31
2022-10-02T05:26:42.863Z,101153.06
2022-10-02T05:29:32.353Z,101145.66
2022-10-02T05:32:17.096Z,101168.41
2022-10-02T05:35:01.445Z,101160.16
2022-10-02T05:37:43.581Z,101146.38
2022-10-02T05:40:21.394Z,101137.41
2022-10-02T05:42:59.477Z,101156.38
2022-10-02T05:45:30.244Z,101155.66
2022-10-02T05:48:07.293Z,101147.25
2022-10-02T05:50:37.530Z,101147.41
2022-10-02T05:53:12.077Z,101161.88
2022-10-02T05:55:47.811Z,101150.88
2022-10-02T05:58:20.969Z,101158.28
2022-10-02T06:00:58.148Z,101156.38
2022-10-02T06:03:32.238Z,101153.78
2022-10-02T06:06:03.608Z,101165.66
2022-10-02T06:08:35.829Z,101172.03
2022-10-02T06:11:11.491Z,101174.94
2022-10-02T06:13:46.266Z,101190.28
2022-10-02T06:16:21.144Z,101193.03
2022-10-02T06:18:54.224Z,101197.66
2022-10-02T06:21:32.268Z,101192.00
2022-10-02T06:24:06.054Z,101196.66
2022-10-02T06:26:43.089Z,101191.84
2022-10-02T06:29:19.895Z,101193.72
2022-10-02T06:32:03.281Z,101199.97
2022-10-02T06:34:31.247Z,101198.38
2022-10-02T06:37:26.952Z,101204.44
2022-10-02T06:40:14.134Z,101199.69
2022-10-02T06:42:52.742Z,101209.50
2022-10-02T06:45:27.733Z,101204.84
2022-10-02T06:48:06.655Z,101205.59
2022-10-02T06:50:44.494Z,101214.56
2022-10-02T06:53:34.220Z,101217.88
2022-10-02T06:56:16.320Z,101220.47
2022-10-02T06:59:04.633Z,101210.47
2022-10-02T07:01:44.480Z,101221.22
2022-10-02T07:04:26.483Z,101221.94
2022-10-02T07:07:05.926Z,101229.88
2022-10-02T07:09:44.179Z,101233.34
2022-10-02T07:12:27.845Z,101231.47
2022-10-02T07:15:11.585Z,101228.56
2022-10-02T07:17:53.437Z,101232.06
2022-10-02T07:20:32.188Z,101221.59
2022-10-02T07:23:14.930Z,101232.59
2022-10-02T07:25:58.183Z,101232.75
2022-10-02T07:28:34.524Z,101241.63
2022-10-02T07:31:12.042Z,101239.59
2022-10-02T07:33:54.085Z,101249.28
2022-10-02T07:36:31.338Z,101244.78
2022-10-02T07:39:10.064Z,101254.50
2022-10-02T07:42:00.369Z,101243.47
2022-10-02T07:44:44.537Z,101255.91
2022-10-02T07:47:23.836Z,101244.88
2022-10-02T07:49:57.303Z,101251.28
2022-10-02T07:52:37.465Z,101262.00
2022-10-02T07:55:16.873Z,101263.00
2022-10-02T07:57:53.877Z,101268.53
2022-10-02T08:00:25.612Z,101273.16
2022-10-02T08:02:59.755Z,101277.66
2022-10-02T08:05:31.230Z,101277.66
2022-10-02T08:08:03.517Z,101274.75
2022-10-02T08:10:37.784Z,101277.66
2022-10-02T08:13:12.095Z,101275.63
2022-10-02T08:15:43.401Z,101280.13
2022-10-02T08:18:33.586Z,101289.94
2022-10-02T08:21:04.150Z,101282.69
2022-10-02T08:23:38.675Z,101280.53
2022-10-02T08:26:12.628Z,101288.66
2022-10-02T08:28:45.652Z,101291.25
2022-10-02T08:31:16.188Z,101294.00
2022-10-02T08:33:45.457Z,101294.69
2022-10-02T08:36:36.911Z,101297.03
2022-10-02T08:39:20.486Z,101294.13
2022-10-02T08:42:18.435Z,101288.47
2022-10-02T08:45:39.162Z,101289.31
2022-10-02T08:48:44.259Z,101295.84
2022-10-02T08:51:47.270Z,101308.31
2022-10-02T08:54:52.208Z,101311.94
2022-10-02T08:57:38.874Z,101309.56
2022-10-02T09:00:20.702Z,101316.81
2022-10-02T09:03:45.773Z,101315.41
2022-10-02T09:07:07.630Z,101318.00
2022-10-02T09:10:27.017Z,101318.31
2022-10-02T09:13:15.807Z,101323.34
2022-10-02T09:15:49.124Z,101329.72
2022-10-02T09:18:19.715Z,101333.34
2022-10-02T09:21:29.114Z,101332.22
2022-10-02T09:24:35.647Z,101328.16
2022-10-02T09:27:33.416Z,101327.16
2022-10-02T09:30:28.014Z,101318.72
2022-10-02T09:33:30.058Z,101328.84
2022-10-02T09:36:49.359Z,101320.78
2022-10-02T09:39:56.001Z,101328.31
2022-10-02T09:43:00.134Z,101332.50
2022-10-02T09:46:16.081Z,101335.09
2022-10-02T09:49:16.933Z,101330.16
2022-10-02T09:52:23.246Z,101330.56
2022-10-02T09:55:35.323Z,101333.19
2022-10-02T09:58:37.661Z,101329.94
2022-10-02T10:01:31.018Z,101336.63
2022-10-02T10:05:01.337Z,101325.25
2022-10-02T10:07:58.835Z,101339.47
2022-10-02T10:10:51.031Z,101335.38
2022-10-02T10:14:09.567Z,101342.91
2022-10-02T10:17:22.369Z,101342.91
2022-10-02T10:20:24.286Z,101350.00
2022-10-02T10:23:08.027Z,101356.78
2022-10-02T10:26:15.159Z,101364.19
2022-10-02T10:29:16.954Z,101357.50
2022-10-02T10:32:27.736Z,101359.69
2022-10-02T10:35:37.568Z,101364.19
2022-10-02T10:38:33.387Z,101358.63
2022-10-02T10:41:51.028Z,101362.25
2022-10-02T10:44:40.998Z,101370.63
2022-10-02T10:47:28.786Z,101370.16
2022-10-02T10:50:19.185Z,101377.84
2022-10-02T10:53:11.668Z,101376.34
2022-10-02T10:55:59.302Z,101373.09
2022-10-02T10:58:44.620Z,101379.75
2022-10-02T11:01:18.721Z,101378.25
2022-10-02T11:04:19.430Z,101390.38
2022-10-02T11:07:08.734Z,101396.00
2022-10-02T11:09:57.585Z,101391.16
2022-10-02T11:13:01.010Z,101392.09
2022-10-02T11:16:07.475Z,101401.84
2022-10-02T11:19:02.127Z,101392.75
2022-10-02T11:21:56.433Z,101394.56
2022-10-02T11:25:01.956Z,101393.75
2022-10-02T11:28:06.194Z,101392.78
2022-10-02T11:30:49.143Z,101396.47
2022-10-02T11:33:23.133Z,101411.84
2022-10-02T11:36:08.805Z,101405.41
2022-10-02T11:39:08.080Z,101412.50
2022-10-02T11:42:27.493Z,101410.28
2022-10-02T11:45:21.086Z,101418.63
2022-10-02T11:48:14.471Z,101416.06
2022-10-02T11:51:02.786Z,101408.47
2022-10-02T11:53:53.888Z,101411.75
2022-10-02T11:56:36.455Z,101409.53
2022-10-02T11:59:28.354Z,101405.75
2022-10-02T12:02:02.912Z,101416.31
2022-10-02T12:04:41.967Z,101418.44
2022-10-02T12:07:22.200Z,101422.44
2022-10-02T12:10:07.799Z,101419.16
2022-10-02T12:12:51.457Z,101425.94
2022-10-02T12:15:31.684Z,101422.66
2022-10-02T12:18:19.453Z,101421.13
2022-10-02T12:21:28.969Z,101422.84
2022-10-02T12:24:20.265Z,101416.28
2022-10-02T12:27:04.547Z,101421.34
2022-10-02T12:29:43.683Z,101424.81
2022-10-02T12:32:24.190Z,101420.16
2022-10-02T12:35:03.681Z,101407.88
2022-10-02T12:37:37.167Z,101413.41
2022-10-02T12:40:18.285Z,101415.88
2022-10-02T12:43:18.185Z,101406.69
2022-10-02T12:46:21.087Z,101400.63
2022-10-02T12:49:22.073Z,101404.09
2022-10-02T12:52:07.025Z,101402.56
2022-10-02T12:54:59.259Z,101401.91
2022-10-02T12:57:55.856Z,101408.66
2022-10-02T13:00:26.214Z,101413.34
2022-10-02T13:03:46.937Z,101406.25
2022-10-02T13:06:37.238Z,101410.06
2022-10-02T13:09:20.611Z,101408.16
2022-10-02T13:12:09.549Z,101422.38
2022-10-02T13:14:56.380Z,101415.47
2022-10-02T13:17:38.318Z,101411.50
2022-10-02T13:20:18.584Z,101414.09
2022-10-02T13:22:58.160Z,101421.19
2022-10-02T13:25:39.887Z,101420.16
2022-10-02T13:28:22.602Z,101418.25
2022-10-02T13:31:02.543Z,101411.66
2022-10-02T13:33:50.111Z,101407.16
2022-10-02T13:36:25.885Z,101399.00
2022-10-02T13:39:18.134Z,101409.44
2022-10-02T13:42:00.364Z,101413.25
2022-10-02T13:44:40.090Z,101420.69
2022-10-02T13:47:38.520Z,101426.22
2022-10-02T13:50:26.697Z,101431.06
2022-10-02T13:53:09.913Z,101433.69
2022-10-02T13:55:46.385Z,101436.44
2022-10-02T13:58:38.263Z,101434.88
2022-10-02T14:01:19.735Z,101442.31
2022-10-02T14:04:10.817Z,101442.47
2022-10-02T14:06:42.625Z,101455.66
2022-10-02T14:09:26.675Z,101441.09
2022-10-02T14:12:20.813Z,101446.78
2022-10-02T14:15:12.365Z,101451.84
2022-10-02T14:17:53.656Z,101450.44
2022-10-02T14:20:34.364Z,101457.16
2022-10-02T14:23:23.702Z,101447.47
2022-10-02T14:26:01.706Z,101454.38
2022-10-02T14:29:08.763Z,101455.94
2022-10-02T14:31:55.607Z,101464.56
2022-10-02T14:34:59.235Z,101461.63
2022-10-02T14:37:44.506Z,101466.28
2022-10-02T14:40:15.419Z,101460.41
2022-10-02T14:42:59.631Z,101469.75
2022-10-02T14:45:50.958Z,101465.56
2022-10-02T14:48:30.623Z,101465.75
2022-10-02T14:51:19.157Z,101466.09
2022-10-02T14:54:01.502Z,101469.88
2022-10-02T14:56:51.081Z,101476.81
2022-10-02T14:59:33.372Z,101473.00
2022-10-02T15:02:24.605Z,101476.09
2022-10-02T15:05:03.582Z,101468.66
2022-10-02T15:07:35.735Z,101471.59
2022-10-02T15:10:15.221Z,101471.59
2022-10-02T15:12:55.672Z,101479.19
2022-10-02T15:15:33.764Z,101480.41
2022-10-02T15:18:21.179Z,101481.44
2022-10-02T15:20:59.292Z,101480.72
2022-10-02T15:23:43.335Z,101477.09
2022-10-02T15:26:26.529Z,101487.31
2022-10-02T15:29:07.570Z,101482.78
2022-10-02T15:31:44.150Z,101482.94
2022-10-02T15:34:25.696Z,101482.94
2022-10-02T15:37:13.682Z,101482.06
2022-10-02T15:40:05.159Z,101485.19
2022-10-02T15:42:49.911Z,101485.00
2022-10-02T15:45:27.657Z,101487.78
2022-10-02T15:48:22.401Z,101496.09
2022-10-02T15:50:59.935Z,101493.00
2022-10-02T15:53:38.631Z,101496.63
2022-10-02T15:56:26.628Z,101512.22
2022-10-02T15:59:11.634Z,101504.63
2022-10-02T16:01:51.574Z,101500.66
2022-10-02T16:04:30.849Z,101501.50
2022-10-02T16:07:36.879Z,101509.81
2022-10-02T16:10:18.355Z,101512.56
2022-10-02T16:13:18.570Z,101514.50
2022-10-02T16:15:52.690Z,101514.31
2022-10-02T16:18:37.467Z,101508.63
2022-10-02T16:21:39.216Z,101520.72
2022-10-02T16:24:27.257Z,101520.72
2022-10-02T16:27:19.224Z,101522.81
2022-10-02T16:30:02.750Z,101531.81
2022-10-02T16:32:39.511Z,101533.69
2022-10-02T16:35:25.113Z,101537.50
2022-10-02T16:38:01.886Z,101543.22
2022-10-02T16:40:40.421Z,101553.44
2022-10-02T16:43:45.906Z,101551.25
2022-10-02T16:46:17.739Z,101561.66
2022-10-02T16:48:52.947Z,101565.63
2022-10-02T16:51:40.356Z,101568.69
2022-10-02T16:54:18.451Z,101575.44
2022-10-02T16:56:53.642Z,101584.06
2022-10-02T16:59:26.522Z,101590.09
2022-10-02T17:02:16.957Z,101594.22
2022-10-02T17:04:56.622Z,101601.13
2022-10-02T17:07:33.699Z,101600.56
2022-10-02T17:10:07.637Z,101616.78
2022-10-02T17:12:52.670Z,101620.88
2022-10-02T17:15:26.494Z,101624.16
2022-10-02T17:18:06.347Z,101622.72
2022-10-02T17:20:41.742Z,101634.28
2022-10-02T17:23:17.714Z,101640.13
2022-10-02T17:25:54.798Z,101653.56
2022-10-02T17:28:31.500Z,101647.63
2022-10-02T17:31:24.231Z,101655.84
2022-10-02T17:33:55.706Z,101662.84
2022-10-02T17:36:32.704Z,101666.63
2022-10-02T17:39:20.240Z,101672.63
2022-10-02T17:41:54.201Z,101678.63
2022-10-02T17:44:39.827Z,101694.66
2022-10-02T17:47:45.246Z,101688.84
2022-10-02T17:50:21.231Z,101699.50
2022-10-02T17:53:17.269Z,101706.41
2022-10-02T17:56:26.618Z,101716.88
2022-10-02T17:59:08.371Z,101712.50
2022-10-02T18:01:45.132Z,101709.22
2022-10-02T18:04:23.201Z,101722.16
2022-10-02T18:07:03.365Z,101719.81
2022-10-02T18:09:51.117Z,101732.06
2022-10-02T18:12:42.538Z,101732.38
2022-10-02T18:18:01.893Z,101752.31
2022-10-02T18:20:35.657Z,101748.09
2022-10-02T18:23:18.606Z,101747.38
2022-10-02T18:25:53.139Z,101747.03
2022-10-02T18:28:37.450Z,101759.50
2022-10-02T18:31:44.157Z,101757.75
2022-10-02T18:34:42.766Z,101766.47
2022-10-02T18:37:25.401Z,101766.91
2022-10-02T18:40:10.181Z,101769.94
2022-10-02T18:42:51.626Z,101776.78
2022-10-02T18:45:34.533Z,101784.34
2022-10-02T18:48:10.693Z,101788.59
2022-10-02T18:51:01.777Z,101797.28
2022-10-02T18:54:01.317Z,101792.09
2022-10-02T18:56:51.596Z,101799.78
2022-10-02T18:59:30.042Z,101802.84
2022-10-02T19:02:13.070Z,101807.75
2022-10-02T19:05:04.674Z,101808.22
2022-10-02T19:07:42.553Z,101811.41
2022-10-02T19:10:26.169Z,101811.66
2022-10-02T19:12:57.510Z,101814.00
2022-10-02T19:15:28.415Z,101817.03
2022-10-02T19:18:03.707Z,101823.75
2022-10-02T19:20:45.012Z,101830.41
2022-10-02T19:23:23.405Z,101829.97
2022-10-02T19:25:53.384Z,101831.25
2022-10-02T19:28:25.511Z,101831.53
2022-10-02T19:30:57.410Z,101837.50
2022-10-02T19:33:34.545Z,101841.25
2022-10-02T19:36:05.152Z,101847.09
2022-10-02T19:38:37.650Z,101847.31
2022-10-02T19:41:10.584Z,101846.88
2022-10-02T19:43:48.811Z,101850.47
2022-10-02T19:46:19.853Z,101849.19
2022-10-02T19:48:55.717Z,101856.00
2022-10-02T19:51:23.716Z,101870.94
2022-10-02T19:53:57.630Z,101875.56
2022-10-02T19:56:31.913Z,101888.75
2022-10-02T19:59:06.865Z,101882.66
2022-10-02T20:01:43.492Z,101894.69
2022-10-02T20:04:18.245Z,101886.84
2022-10-02T20:06:52.941Z,101891.75
2022-10-02T20:09:28.460Z,101897.41
2022-10-02T20:12:01.058Z,101900.44
2022-10-02T20:14:33.148Z,101904.47
2022-10-02T20:17:09.167Z,101904.03
2022-10-02T20:19:42.292Z,101899.38
2022-10-02T20:22:23.909Z,101911.41
2022-10-02T20:24:58.334Z,101917.31
2022-10-02T20:27:36.212Z,101917.47
2022-10-02T20:30:08.160Z,101917.88
2022-10-02T20:32:41.942Z,101919.13
2022-10-02T20:35:16.298Z,101930.16
2022-10-02T20:37:46.609Z,101935.22
2022-10-02T20:40:19.519Z,101934.22
2022-10-02T20:42:57.673Z,101938.97
2022-10-02T20:45:33.890Z,101944.78
2022-10-02T20:49:06.989Z,101950.66
2022-10-02T20:54:49.915Z,101961.34
2022-10-02T20:58:06.065Z,101960.25
2022-10-02T21:00:50.170Z,101962.88
2022-10-02T21:03:38.195Z,101964.88
2022-10-02T21:06:35.586Z,101968.03
2022-10-02T21:09:46.545Z,101980.19
2022-10-02T21:12:58.343Z,101986.06
2022-10-02T21:15:55.287Z,101983.72
2022-10-02T21:18:39.510Z,101988.34
2022-10-02T21:21:36.024Z,101992.22
2022-10-02T21:24:35.933Z,101987.25
2022-10-02T21:27:21.646Z,102001.88
2022-10-02T21:30:11.018Z,101986.66
2022-10-02T21:32:57.828Z,101991.28
2022-10-02T21:35:53.269Z,101989.91
2022-10-02T21:39:07.240Z,101994.06
2022-10-02T21:42:19.287Z,102002.44
2022-10-02T21:45:13.850Z,102006.94
2022-10-02T21:48:04.526Z,102022.69
2022-10-02T21:51:23.236Z,102026.72
2022-10-02T21:54:20.756Z,102031.47
2022-10-02T21:57:28.965Z,102035.00
2022-10-02T22:00:08.588Z,102038.38
2022-10-02T22:03:11.460Z,102043.25
2022-10-02T22:06:05.308Z,102054.50
2022-10-02T22:08:45.200Z,102050.91
2022-10-02T22:11:22.679Z,102057.53
2022-10-02T22:13:54.858Z,102065.00
2022-10-02T22:16:36.550Z,102072.38
2022-10-02T22:19:15.595Z,102068.88
2022-10-02T22:21:58.307Z,102071.63
2022-10-02T22:24:49.323Z,102071.91
2022-10-02T22:27:37.559Z,102062.91
2022-10-02T22:30:06.321Z,102066.91
2022-10-02T22:33:11.908Z,102064.28
2022-10-02T22:36:17.639Z,102069.09
2022-10-02T22:38:49.330Z,102075.59
2022-10-02T22:41:27.573Z,102078.34
2022-10-02T22:43:58.273Z,102080.50
2022-10-02T22:46:41.195Z,102075.00
2022-10-02T22:49:22.933Z,102079.84
2022-10-02T22:52:00.639Z,102077.34
2022-10-02T22:54:39.128Z,102086.63
2022-10-02T22:57:15.391Z,102089.59
2022-10-02T22:59:49.030Z,102098.09
2022-10-02T23:02:23.938Z,102100.09
2022-10-02T23:04:57.706Z,102089.34
2022-10-02T23:07:34.889Z,102090.44
2022-10-02T23:10:08.329Z,102088.97
2022-10-02T23:12:40.260Z,102080.94
2022-10-02T23:15:30.374Z,102090.56
2022-10-02T23:18:02.597Z,102086.28
2022-10-02T23:20:36.128Z,102084.81
2022-10-02T23:23:14.793Z,102088.53
2022-10-02T23:25:47.241Z,102083.28
2022-10-02T23:28:20.964Z,102077.28
2022-10-02T23:30:53.739Z,102081.13
2022-10-02T23:33:26.197Z,102082.38
2022-10-02T23:35:59.732Z,102085.34
2022-10-02T23:38:39.088Z,102091.84
2022-10-02T23:41:29.870Z,102097.72
2022-10-02T23:44:11.092Z,102092.56
2022-10-02T23:47:02.611Z,102100.28
2022-10-02T23:49:36.124Z,102099.53
2022-10-02T23:52:20.420Z,102100.53
2022-10-02T23:55:05.782Z,102105.38
2022-10-02T23:57:55.816Z,102108.47
